Rural Valley, Pennsylvania
Current Conditions -  °F | °C
As of 11:15 AM on Tuesday 21 Oct 2014 (Local Time) from KIDI Reporting Station
Haze Haze  
Wind Chill: 50°   Ceiling: 500
Heat Index: 50°   Visibility: 2mi
Dew Point: 50°   Wind: 7mph
Humidity: 100%   Direction: 260°W
Pressure: 29.9"   Gusts: NA
Location:  40.8°N, 79.31°W
Report Text: KIDI 211515Z AUTO 26006KT 2SM BR OVC005 10/10 A2990 RMK A01
Loading
Personal Weather Stations






























Interactive Weather Map
Tropical Storm Tracking
New forecast layout! Learn more

10-Day Weather Forecast

Advertisements
Track Severe Weather on mobile